Latest Weather Observations for Scottsdale

IDT60801

Issued at 10:01 am EST Wednesday 24 July 2024 (issued every 10 minutes, with the page automatically refreshed every 10 minutes)

About weather observations | Map of weather stations | Latest weather observations for TAS | Other Formats
Station Details ID: 091219 Name: SCOTTSDALE (WEST MINSTONE ROAD) Lat: -41.17 Lon: 147.49 Height: 197.5 m
Data from the previous 72 hours. | See also: Recent months at Scottsdale
Date/Time
EST
Temp
°C
App
Temp
°C
Dew
Point
°C
Rel
Hum
%
Delta-T
°C
Wind Press
QNH
hPa
Press
MSL
hPa
Rain since
9am
mm
Dir  Spd
km/h
Gust
km/h
Spd
kts
Gust
kts
24/10:00am 12.2 9.3 8.3 77 1.9 NW 13 19 7 10 1016.6 1017.0 0.0
24/09:30am 11.9 10.2 7.6 75 2.1 NNW 6 9 3 5 1016.6 1017.0 0.0
24/09:00am 11.8 10.9 7.9 77 1.9 E 2 7 1 4 1016.8 1017.2 0.0
24/08:30am 9.2 8.1 6.8 85 1.1 ESE 2 7 1 4 1016.9 1017.3 0.0
24/08:00am 8.3 7.0 6.1 86 1.0 SW 2 7 1 4 1016.8 1017.2 0.0
24/07:30am 6.6 5.4 4.4 86 1.0 CALM 0 6 0 3 1016.7 1017.1 0.0
24/07:00am 8.6 6.6 6.9 89 0.8 W 7 11 4 6 1016.4 1016.8 0.0
24/06:30am 4.7 3.3 3.4 91 0.5 CALM 0 0 0 0 1016.2 1016.6 0.0
24/06:00am 4.7 3.3 3.4 91 0.5 CALM 0 0 0 0 1016.1 1016.5 0.0
24/05:30am 5.0 3.2 3.7 91 0.5 WNW 2 6 1 3 1016.1 1016.5 0.0
24/05:00am 6.6 5.6 5.7 94 0.4 CALM 0 6 0 3 1016.1 1016.5 0.0
24/04:30am 6.4 5.4 5.4 93 0.4 CALM 0 0 0 0 1016.1 1016.5 0.0
24/04:00am 6.7 4.6 5.7 93 0.5 NNW 6 9 3 5 1016.3 1016.7 0.0
24/03:30am 8.4 6.4 6.9 90 0.7 NW 7 11 4 6 1016.3 1016.7 0.0
24/03:00am 7.7 5.6 6.6 93 0.5 NNW 7 11 4 6 1016.5 1016.9 0.0
24/02:30am 6.6 4.1 4.8 88 0.8 NNW 7 11 4 6 1016.7 1017.1 0.0
24/02:00am 8.3 6.3 7.1 92 0.6 NW 7 11 4 6 1016.9 1017.3 0.0
24/01:30am 8.5 6.6 7.7 95 0.4 NW 7 9 4 5 1017.0 1017.4 0.0
24/01:00am 6.7 4.6 6.0 95 0.3 NNW 6 9 3 5 1017.1 1017.5 0.0
24/12:30am 6.2 5.1 5.2 93 0.4 CALM 0 0 0 0 1017.2 1017.6 0.0
24/12:00am 7.8 6.4 7.4 97 0.2 NNW 4 7 2 4 1017.3 1017.7 0.0
 
Date/Time
EST
Temp
°C
App
Temp
°C
Dew
Point
°C
Rel
Hum
%
Delta-T
°C
Wind Press
QNH
hPa
Press
MSL
hPa
Rain since
9am
mm
Dir  Spd
km/h
Gust
km/h
Spd
kts
Gust
kts
23/11:30pm 6.7 4.5 5.3 91 0.6 N 6 6 3 3 1017.5 1018.0 0.0
23/11:00pm 8.1 6.5 6.4 89 0.8 NW 4 7 2 4 1017.6 1018.1 0.0
23/10:30pm 9.5 7.2 7.6 88 0.9 NW 9 13 5 7 1017.8 1018.2 0.0
23/10:00pm 9.3 7.0 7.6 89 0.8 NW 9 13 5 7 1017.8 1018.2 0.0
23/09:30pm 7.6 5.3 5.9 89 0.8 NNW 7 9 4 5 1017.9 1018.3 0.0
23/09:00pm 9.6 7.4 7.7 88 0.9 NNW 9 11 5 6 1017.9 1018.3 0.0
23/08:30pm 9.6 7.4 7.9 89 0.8 NW 9 11 5 6 1018.0 1018.4 0.0
23/08:00pm 9.1 6.7 7.2 88 0.9 NW 9 13 5 7 1018.1 1018.5 0.0
23/07:30pm 10.1 7.4 7.3 83 1.3 NW 11 17 6 9 1018.1 1018.5 0.0
23/07:00pm 10.8 7.4 7.5 80 1.6 WNW 15 22 8 12 1018.0 1018.4 0.0
23/06:30pm 11.1 8.2 8.0 81 1.5 WNW 13 19 7 10 1017.8 1018.2 0.0
23/06:00pm 11.3 8.0 8.2 81 1.5 WNW 15 24 8 13 1017.4 1017.8 0.0
23/05:30pm 11.1 7.4 8.1 82 1.5 WNW 17 28 9 15 1017.2 1017.6 0.0
23/05:00pm 11.3 7.3 8.2 81 1.5 WNW 19 32 10 17 1017.1 1017.5 0.0
23/04:30pm 11.8 6.8 8.1 78 1.8 WNW 24 39 13 21 1017.0 1017.4 0.0
23/04:00pm 12.5 8.4 8.6 77 2.0 WNW 20 33 11 18 1017.0 1017.4 0.0
23/03:30pm 12.9 8.8 8.6 75 2.2 NW 20 35 11 19 1016.8 1017.2 0.0
23/03:00pm 13.3 8.0 8.6 73 2.4 WNW 26 37 14 20 1016.8 1017.2 0.0
23/02:46pm 13.5 7.9 8.6 72 2.5 WNW 28 46 15 25 1017.0 1017.4 0.0
23/02:30pm 13.7 9.7 9.2 74 2.3 WNW 20 39 11 21 1017.0 1017.4 0.0
23/02:00pm 13.2 7.7 9.1 76 2.1 WNW 28 46 15 25 1017.3 1017.7 0.0
23/01:57pm 13.3 7.8 9.0 75 2.2 WNW 28 46 15 25 1017.3 1017.7 0.0
23/01:30pm 13.0 8.8 9.6 80 1.8 WNW 22 33 12 18 1017.5 1018.0 0.0
23/01:00pm 13.0 8.5 10.0 82 1.6 WNW 24 35 13 19 1017.6 1018.1 0.0
23/12:30pm 13.0 8.5 10.0 82 1.6 WNW 24 44 13 24 1018.0 1018.4 0.0
23/12:00pm 13.0 9.0 10.4 84 1.4 WNW 22 39 12 21 1018.2 1018.6 0.0
23/11:30am 12.9 8.4 10.1 83 1.5 WNW 24 39 13 21 1018.4 1018.8 0.0
23/11:00am 12.8 8.4 10.3 85 1.3 WNW 24 43 13 23 1018.7 1019.1 0.0
23/10:30am 12.4 8.8 10.6 89 0.9 WNW 20 35 11 19 1018.9 1019.3 0.0
23/10:00am 12.2 7.9 10.6 90 0.8 WNW 24 39 13 21 1018.8 1019.2 0.0
23/09:30am 12.1 8.8 10.8 92 0.7 WNW 19 32 10 17 1018.8 1019.2 0.0
23/09:00am 12.1 7.8 10.7 91 0.7 WNW 24 43 13 23 1018.4 1018.8 8.8
23/08:30am 11.8 7.1 10.5 92 0.7 WNW 26 43 14 23 1018.2 1018.6 8.6
23/08:00am 11.7 7.4 10.6 93 0.6 WNW 24 35 13 19 1018.2 1018.6 8.6
23/07:30am 11.5 7.9 10.6 94 0.5 WNW 20 32 11 17 1018.1 1018.5 8.6
23/07:00am 11.6 8.0 10.7 94 0.5 WNW 20 37 11 20 1018.0 1018.4 8.6
23/06:30am 11.7 7.9 9.9 89 0.9 WNW 20 35 11 19 1017.8 1018.2 8.4
23/06:00am 11.7 6.8 10.1 90 0.8 WNW 26 41 14 22 1017.5 1018.0 8.4
23/05:30am 11.9 7.2 10.6 92 0.7 WNW 26 37 14 20 1017.2 1017.6 8.4
23/05:20am 12.0 7.0 10.9 93 0.6 WNW 28 46 15 25 1017.0 1017.4 8.4
23/05:00am 11.9 7.7 11.0 94 0.5 WNW 24 48 13 26 1017.0 1017.4 8.4
23/04:30am 12.0 6.3 11.1 94 0.5 WNW 32 46 17 25 1016.8 1017.2 8.4
23/04:00am 11.9 8.5 11.3 96 0.3 NW 20 35 11 19 1016.6 1017.0 8.2
23/03:30am 12.0 8.2 11.2 95 0.4 WNW 22 35 12 19 1016.8 1017.2 8.2
23/03:00am 11.9 8.7 11.1 95 0.4 WNW 19 35 10 19 1016.9 1017.3 8.2
23/02:30am 11.8 8.6 11.2 96 0.3 WNW 19 33 10 18 1017.0 1017.4 8.0
23/02:00am 11.8 8.4 11.2 96 0.3 WNW 20 35 11 19 1017.1 1017.5 7.6
23/01:30am 11.8 8.6 11.2 96 0.3 WNW 19 33 10 18 1017.0 1017.4 7.6
23/01:00am 11.8 7.7 11.3 97 0.3 WNW 24 37 13 20 1017.0 1017.4 7.6
23/12:30am 11.8 9.0 11.3 97 0.3 WNW 17 26 9 14 1017.0 1017.4 6.8
23/12:00am 11.8 8.5 11.5 98 0.2 WNW 20 32 11 17 1017.2 1017.6 6.2
 
Date/Time
EST
Temp
°C
App
Temp
°C
Dew
Point
°C
Rel
Hum
%
Delta-T
°C
Wind Press
QNH
hPa
Press
MSL
hPa
Rain since
9am
mm
Dir  Spd
km/h
Gust
km/h
Spd
kts
Gust
kts
22/11:30pm 11.8 8.5 11.5 98 0.2 NW 20 30 11 16 1017.1 1017.5 4.8
22/11:00pm 11.8 8.4 11.3 97 0.3 WNW 20 35 11 19 1017.3 1017.7 2.8
22/10:30pm 11.8 8.4 11.3 97 0.3 WNW 20 32 11 17 1017.4 1017.8 2.6
22/10:00pm 11.7 7.9 11.2 97 0.3 WNW 22 33 12 18 1017.4 1017.8 2.6
22/09:30pm 11.7 8.3 11.4 98 0.2 WNW 20 35 11 19 1017.3 1017.7 2.2
22/09:00pm 11.4 8.1 10.9 97 0.3 WNW 19 30 10 16 1017.2 1017.6 1.8
22/08:30pm 11.3 8.6 10.5 95 0.4 WNW 15 24 8 13 1017.2 1017.6 1.4
22/08:00pm 11.3 8.6 10.4 94 0.5 WNW 15 24 8 13 1017.1 1017.5 1.2
22/07:30pm 11.4 7.8 10.5 94 0.5 WNW 20 32 11 17 1016.9 1017.3 1.2
22/07:00pm 11.4 8.4 10.5 94 0.5 WNW 17 26 9 14 1016.9 1017.3 1.2
22/06:30pm 11.5 8.5 10.7 95 0.4 WNW 17 24 9 13 1016.8 1017.2 1.2
22/06:00pm 11.5 8.9 10.6 94 0.5 WNW 15 26 8 14 1016.6 1017.0 1.2
22/05:30pm 11.5 9.3 10.7 95 0.4 WNW 13 20 7 11 1016.4 1016.8 1.2
22/05:00pm 11.5 9.2 10.6 94 0.5 WNW 13 20 7 11 1016.2 1016.6 1.2
22/04:30pm 11.8 8.4 10.4 91 0.7 NW 19 28 10 15 1016.0 1016.4 1.2
22/04:00pm 12.0 9.5 11.1 94 0.5 NW 15 22 8 12 1015.7 1016.1 1.2
22/03:30pm 12.1 9.9 10.8 92 0.7 WNW 13 20 7 11 1015.7 1016.1 0.8
22/03:00pm 12.2 9.6 10.6 90 0.8 WNW 15 24 8 13 1015.6 1016.0 0.8
22/02:30pm 12.4 9.4 10.6 89 0.9 W 17 30 9 16 1015.5 1015.9 0.8
22/02:00pm 12.0 9.8 10.9 93 0.6 WNW 13 24 7 13 1015.3 1015.7 0.8
22/01:30pm 12.7 10.5 10.9 89 1.0 W 13 20 7 11 1015.3 1015.7 0.8
22/01:00pm 12.5 9.0 10.2 86 1.2 W 19 28 10 15 1015.3 1015.7 0.8
22/12:30pm 12.7 9.4 10.9 89 1.0 WNW 19 35 10 19 1015.7 1016.1 0.8
22/12:00pm 11.8 8.8 10.7 93 0.6 WNW 17 32 9 17 1016.1 1016.5 0.8
22/11:30am 11.6 9.1 11.0 96 0.3 WNW 15 24 8 13 1016.3 1016.7 0.8
22/11:00am 11.5 9.0 11.0 97 0.3 WNW 15 24 8 13 1016.5 1016.9 0.4
22/10:30am 11.5 9.7 11.0 97 0.3 WNW 11 15 6 8 1016.5 1016.9 0.2
22/10:00am 11.3 8.7 10.8 97 0.3 WNW 15 24 8 13 1016.0 1016.4 0.0
22/09:30am 11.1 8.5 10.6 97 0.3 WNW 15 26 8 14 1015.8 1016.2 0.0
22/09:00am 11.1 8.5 10.8 98 0.2 WNW 15 22 8 12 1015.5 1015.9 32.0
22/08:30am 10.8 8.5 10.5 98 0.2 NW 13 17 7 9 1015.2 1015.6 31.6
22/08:00am 10.3 7.8 9.8 97 0.3 NW 13 17 7 9 1015.2 1015.6 29.6
22/07:30am 10.4 7.5 9.6 95 0.4 WNW 15 22 8 12 1014.7 1015.1 25.6
22/07:00am 10.2 7.7 9.6 96 0.3 WNW 13 19 7 10 1014.5 1014.9 25.6
22/06:30am 10.2 7.7 9.6 96 0.3 WNW 13 20 7 11 1014.4 1014.8 25.6
22/06:00am 10.3 8.2 9.7 96 0.3 WNW 11 15 6 8 1014.0 1014.4 25.6
22/05:30am 10.8 8.4 9.9 94 0.5 W 13 24 7 13 1013.6 1014.0 24.2
22/05:00am 11.2 7.3 10.7 97 0.3 NW 22 33 12 18 1013.1 1013.4 24.0
22/04:30am 10.9 7.8 10.4 97 0.3 WNW 17 28 9 15 1013.1 1013.4 23.0
22/04:00am 11.0 8.3 10.5 97 0.3 W 15 22 8 12 1013.0 1013.3 20.6
22/03:30am 11.2 8.1 10.4 95 0.4 W 17 26 9 14 1013.0 1013.3 17.2
22/03:00am 11.3 6.9 10.4 94 0.5 WNW 24 37 13 20 1013.0 1013.3 16.4
22/02:30am 11.2 6.4 10.3 94 0.5 WNW 26 37 14 20 1012.7 1013.0 16.4
22/02:00am 11.3 6.9 10.5 95 0.4 WNW 24 37 13 20 1012.7 1013.0 16.4
22/01:44am 11.3 6.2 10.5 95 0.4 WNW 28 54 15 29 1012.3 1012.7 16.4
22/01:30am 11.1 7.1 10.5 96 0.3 NW 22 35 12 19 1012.3 1012.7 16.4
22/01:00am 11.0 7.3 10.1 94 0.5 WNW 20 30 11 16 1012.6 1012.9 16.2
22/12:30am 10.9 7.4 10.1 95 0.4 WNW 19 30 10 16 1013.2 1013.5 16.2
22/12:00am 9.7 5.6 8.6 93 0.5 W 20 39 11 21 1013.2 1013.5 16.2
 
Date/Time
EST
Temp
°C
App
Temp
°C
Dew
Point
°C
Rel
Hum
%
Delta-T
°C
Wind Press
QNH
hPa
Press
MSL
hPa
Rain since
9am
mm
Dir  Spd
km/h
Gust
km/h
Spd
kts
Gust
kts
21/11:30pm 10.3 7.0 9.5 95 0.4 W 17 28 9 15 1013.2 1013.5 15.2
21/11:00pm 11.3 7.7 10.7 96 0.3 W 20 33 11 18 1013.0 1013.3 11.6
21/10:30pm 11.3 7.8 10.8 97 0.3 WNW 20 35 11 19 1012.7 1013.0 10.6
21/10:00pm 11.3 7.0 10.7 96 0.3 WNW 24 35 13 19 1012.8 1013.1 10.2
21/09:30pm 11.2 6.9 10.6 96 0.3 WNW 24 39 13 21 1012.9 1013.2 9.8
21/09:00pm 11.2 6.5 10.6 96 0.3 NW 26 46 14 25 1012.9 1013.2 8.8
21/08:30pm 11.1 6.7 10.5 96 0.3 NW 24 35 13 19 1012.9 1013.2 8.8
21/08:00pm 11.1 7.1 10.5 96 0.3 NW 22 32 12 17 1012.9 1013.2 8.0
21/07:30pm 10.9 7.5 10.4 97 0.3 WNW 19 28 10 15 1012.9 1013.2 7.4
21/07:00pm 10.9 6.5 10.3 96 0.3 NW 24 33 13 18 1012.8 1013.1 6.8
21/06:30pm 10.9 6.9 10.4 97 0.3 NW 22 33 12 18 1012.5 1012.8 6.6
21/06:00pm 10.8 6.7 10.2 96 0.3 NW 22 33 12 18 1012.2 1012.6 6.0
21/05:30pm 10.6 7.0 9.8 95 0.4 NW 19 30 10 16 1012.2 1012.6 5.8
21/05:00pm 10.7 7.2 10.2 97 0.3 NW 19 28 10 15 1012.0 1012.4 5.6
21/04:30pm 10.7 7.2 10.1 96 0.3 NW 19 32 10 17 1012.0 1012.4 5.6
21/04:00pm 10.6 8.2 10.1 97 0.3 WNW 13 24 7 13 1011.9 1012.3 5.2
21/03:30pm 10.2 8.8 9.6 96 0.3 NW 7 11 4 6 1012.0 1012.4 3.8
21/03:00pm 10.0 9.4 9.1 94 0.5 WNW 2 7 1 4 1012.0 1012.4 1.6
21/02:30pm 10.3 8.7 8.9 91 0.7 NW 7 11 4 6 1012.0 1012.4 0.0
21/02:00pm 10.4 8.0 8.7 89 0.8 NW 11 17 6 9 1012.0 1012.4 0.0
21/01:30pm 10.9 7.9 7.6 80 1.6 NW 13 17 7 9 1012.1 1012.5 0.0
21/01:00pm 10.9 8.5 7.0 77 1.9 W 9 15 5 8 1012.2 1012.6 0.0
21/12:30pm 11.5 8.7 6.8 73 2.3 W 11 20 6 11 1012.6 1012.9 0.0
21/12:00pm 10.6 6.4 5.8 72 2.2 WSW 17 28 9 15 1013.2 1013.5 0.0
21/11:30am 10.8 7.5 6.2 73 2.2 W 13 19 7 10 1013.1 1013.4 0.0
21/11:00am 9.5 6.6 4.9 73 2.1 W 9 15 5 8 1013.2 1013.5 0.0
21/10:30am 8.3 5.5 5.1 80 1.4 SSE 9 11 5 6 1013.2 1013.5 0.0

Other formats

Comma delimited format used in spreadsheet applications
http://www.bom.gov.au/fwo/IDT60801/IDT60801.94972.axf

JavaScript Object Notation format (JSON) in row-major order
http://www.bom.gov.au/fwo/IDT60801/IDT60801.94972.json

Data quality

Most of these data are generated automatically and are frequently updated. Quality checks on data are not normally performed. It is possible for incorrect values to appear. Refer to information at About Latest Weather Observations and please check the disclaimer before using these data.